createdAt,value
2022-12-24T00:01:13.793Z,100038.66
2022-12-24T00:03:15.354Z,100035.63
2022-12-24T00:05:17.229Z,100029.13
2022-12-24T00:07:20.397Z,100030.84
2022-12-24T00:09:21.953Z,100027.78
2022-12-24T00:11:23.531Z,100028.75
2022-12-24T00:13:25.211Z,100040.25
2022-12-24T00:15:27.088Z,100032.59
2022-12-24T00:17:28.752Z,100038.84
2022-12-24T00:19:30.321Z,100041.84
2022-12-24T00:21:31.962Z,100035.13
2022-12-24T00:23:35.238Z,100036.25
2022-12-24T00:25:36.784Z,100040.88
2022-12-24T00:27:38.327Z,100051.72
2022-12-24T00:29:39.937Z,100047.53
2022-12-24T00:31:41.488Z,100047.03
2022-12-24T00:33:43.101Z,100056.09
2022-12-24T00:35:44.649Z,100054.47
2022-12-24T00:37:47.507Z,100063.25
2022-12-24T00:39:50.386Z,100068.34
2022-12-24T00:41:51.979Z,100070.28
2022-12-24T00:43:54.804Z,100073.09
2022-12-24T00:45:57.548Z,100071.31
2022-12-24T00:47:59.160Z,100077.50
2022-12-24T00:50:00.979Z,100087.88
2022-12-24T00:52:02.603Z,100079.75
2022-12-24T00:54:04.945Z,100073.19
2022-12-24T00:56:08.683Z,100074.63
2022-12-24T00:58:10.223Z,100078.75
2022-12-24T01:00:12.266Z,100083.06
2022-12-24T01:02:14.093Z,100077.34
2022-12-24T01:04:15.930Z,100079.34
2022-12-24T01:06:19.238Z,100081.75
2022-12-24T01:08:20.758Z,100088.78
2022-12-24T01:10:22.411Z,100093.19
2022-12-24T01:12:25.817Z,100106.72
2022-12-24T01:14:27.473Z,100101.00
2022-12-24T01:16:29.278Z,100103.31
2022-12-24T01:18:31.038Z,100109.22
2022-12-24T01:20:32.654Z,100106.38
2022-12-24T01:22:34.198Z,100104.31
2022-12-24T01:24:35.888Z,100127.06
2022-12-24T01:26:40.032Z,100124.97
2022-12-24T01:28:42.930Z,100135.00
2022-12-24T01:30:44.598Z,100139.13
2022-12-24T01:32:46.219Z,100130.19
2022-12-24T01:34:47.791Z,100135.63
2022-12-24T01:36:49.376Z,100133.41
2022-12-24T01:38:50.956Z,100152.03
2022-12-24T01:40:52.526Z,100146.63
2022-12-24T01:42:54.107Z,100147.72
2022-12-24T01:44:57.015Z,100154.94
2022-12-24T01:47:06.968Z,100168.66
2022-12-24T01:49:11.627Z,100172.28
2022-12-24T01:51:21.923Z,100181.41
2022-12-24T01:53:24.008Z,100182.19
2022-12-24T01:55:26.307Z,100180.41
2022-12-24T01:57:37.695Z,100183.75
2022-12-24T01:59:42.153Z,100185.44
2022-12-24T02:01:52.788Z,100184.13
2022-12-24T02:03:55.804Z,100193.38
2022-12-24T02:05:59.023Z,100190.16
2022-12-24T02:08:03.636Z,100199.38
2022-12-24T02:10:08.279Z,100198.47
2022-12-24T02:12:09.906Z,100204.47
2022-12-24T02:14:12.856Z,100212.00
2022-12-24T02:16:27.665Z,100205.41
2022-12-24T02:18:38.504Z,100207.09
2022-12-24T02:21:06.382Z,100207.09
2022-12-24T02:23:24.789Z,100211.13
2022-12-24T02:26:00.253Z,100210.94
2022-12-24T02:28:14.098Z,100209.13
2022-12-24T02:30:19.768Z,100215.84
2022-12-24T02:32:24.435Z,100206.13
2022-12-24T02:34:32.966Z,100205.53
2022-12-24T02:36:40.069Z,100207.13
2022-12-24T02:38:47.297Z,100206.81
2022-12-24T02:40:52.728Z,100206.31
2022-12-24T02:42:58.527Z,100208.03
2022-12-24T02:45:05.291Z,100214.84
2022-12-24T02:47:09.957Z,100207.63
2022-12-24T02:49:12.319Z,100210.66
2022-12-24T02:51:14.264Z,100213.84
2022-12-24T02:53:15.901Z,100199.69
2022-12-24T02:55:21.798Z,100205.44
2022-12-24T02:57:34.327Z,100207.94
2022-12-24T02:59:55.087Z,100203.94
2022-12-24T03:02:07.687Z,100205.31
2022-12-24T03:04:16.434Z,100214.47
2022-12-24T03:06:30.974Z,100216.84
2022-12-24T03:08:43.633Z,100222.75
2022-12-24T03:10:55.069Z,100228.69
2022-12-24T03:13:02.717Z,100233.50
2022-12-24T03:15:06.767Z,100241.31
2022-12-24T03:17:09.539Z,100247.03
2022-12-24T03:19:13.291Z,100247.63
2022-12-24T03:21:21.399Z,100244.94
2022-12-24T03:23:23.102Z,100246.53
2022-12-24T03:25:27.184Z,100241.13
2022-12-24T03:27:30.811Z,100241.63
2022-12-24T03:29:32.528Z,100238.41
2022-12-24T03:31:45.283Z,100232.63
2022-12-24T03:33:47.803Z,100236.91
2022-12-24T03:35:50.688Z,100246.03
2022-12-24T03:37:52.527Z,100248.34
2022-12-24T03:39:54.049Z,100239.31
2022-12-24T03:41:55.632Z,100239.31
2022-12-24T03:43:57.421Z,100250.66
2022-12-24T03:46:03.910Z,100234.78
2022-12-24T03:48:05.879Z,100233.38
2022-12-24T03:50:08.217Z,100235.91
2022-12-24T03:52:11.193Z,100238.00
2022-12-24T03:54:13.127Z,100225.66
2022-12-24T03:56:15.424Z,100230.16
2022-12-24T03:58:16.990Z,100243.69
2022-12-24T04:00:19.809Z,100249.13
2022-12-24T04:02:21.621Z,100252.44
2022-12-24T04:04:23.438Z,100252.72
2022-12-24T04:06:25.037Z,100245.22
2022-12-24T04:08:28.269Z,100249.53
2022-12-24T04:10:29.901Z,100251.13
2022-12-24T04:12:31.578Z,100258.16
2022-12-24T04:14:33.320Z,100258.06
2022-12-24T04:16:34.897Z,100248.53
2022-12-24T04:18:37.148Z,100258.06
2022-12-24T04:20:38.753Z,100252.16
2022-12-24T04:22:40.317Z,100251.97
2022-12-24T04:24:43.488Z,100261.19
2022-12-24T04:26:45.221Z,100271.19
2022-12-24T04:28:46.819Z,100261.38
2022-12-24T04:30:48.389Z,100265.69
2022-12-24T04:32:50.025Z,100268.06
2022-12-24T04:34:51.548Z,100278.00
2022-12-24T04:36:53.381Z,100280.41
2022-12-24T04:38:54.963Z,100284.09
2022-12-24T04:41:02.063Z,100287.72
2022-12-24T04:43:03.641Z,100281.31
2022-12-24T04:45:06.115Z,100288.22
2022-12-24T04:47:07.722Z,100295.03
2022-12-24T04:49:09.300Z,100289.03
2022-12-24T04:51:11.709Z,100292.25
2022-12-24T04:53:13.599Z,100285.81
2022-12-24T04:55:15.173Z,100284.72
2022-12-24T04:57:18.158Z,100292.81
2022-12-24T04:59:19.735Z,100291.94
2022-12-24T05:01:23.981Z,100285.72
2022-12-24T05:03:25.788Z,100280.91
2022-12-24T05:05:27.400Z,100281.09
2022-12-24T05:07:29.038Z,100283.81
2022-12-24T05:09:30.664Z,100286.63
2022-12-24T05:11:32.318Z,100289.34
2022-12-24T05:13:42.541Z,100287.94
2022-12-24T05:15:47.968Z,100282.13
2022-12-24T05:17:50.082Z,100278.91
2022-12-24T05:19:51.695Z,100285.09
2022-12-24T05:21:53.565Z,100294.25
2022-12-24T05:23:55.158Z,100295.34
2022-12-24T05:25:57.185Z,100296.75
2022-12-24T05:27:58.970Z,100291.41
2022-12-24T05:30:01.952Z,100281.91
2022-12-24T05:32:03.618Z,100281.09
2022-12-24T05:34:05.251Z,100283.41
2022-12-24T05:36:07.721Z,100286.13
2022-12-24T05:38:09.265Z,100289.22
2022-12-24T05:40:11.330Z,100280.28
2022-12-24T05:42:14.247Z,100287.31
2022-12-24T05:44:16.584Z,100306.44
2022-12-24T05:46:21.584Z,100302.63
2022-12-24T05:48:23.144Z,100316.66
2022-12-24T05:50:24.757Z,100305.13
2022-12-24T05:52:26.408Z,100308.44
2022-12-24T05:54:28.053Z,100312.34
2022-12-24T05:56:29.645Z,100319.16
2022-12-24T05:58:31.238Z,100317.75
2022-12-24T06:00:32.883Z,100319.56
2022-12-24T06:02:35.899Z,100312.53
2022-12-24T06:04:37.834Z,100309.63
2022-12-24T06:06:39.419Z,100315.63
2022-12-24T06:08:42.072Z,100308.53
2022-12-24T06:10:43.739Z,100315.75
2022-12-24T06:12:45.309Z,100317.16
2022-12-24T06:14:46.878Z,100320.34
2022-12-24T06:16:55.925Z,100313.13
2022-12-24T06:18:58.921Z,100316.66
2022-12-24T06:21:01.389Z,100324.66
2022-12-24T06:23:03.236Z,100319.63
2022-12-24T06:25:05.694Z,100330.19
2022-12-24T06:27:07.351Z,100326.66
2022-12-24T06:29:08.936Z,100329.66
2022-12-24T06:31:13.113Z,100334.66
2022-12-24T06:33:15.438Z,100332.84
2022-12-24T06:35:18.872Z,100343.88
2022-12-24T06:37:20.442Z,100349.88
2022-12-24T06:39:21.991Z,100337.31
2022-12-24T06:41:24.190Z,100346.94
2022-12-24T06:43:25.987Z,100340.97
2022-12-24T06:45:27.572Z,100346.66
2022-12-24T06:47:29.179Z,100347.94
2022-12-24T06:49:30.833Z,100354.75
2022-12-24T06:51:33.782Z,100353.09
2022-12-24T06:53:35.379Z,100362.81
2022-12-24T06:55:37.167Z,100359.66
2022-12-24T06:57:38.733Z,100357.97
2022-12-24T06:59:40.276Z,100357.41
2022-12-24T07:01:41.951Z,100370.09
2022-12-24T07:03:43.819Z,100370.63
2022-12-24T07:05:45.711Z,100386.63
2022-12-24T07:07:48.673Z,100391.81
2022-12-24T07:09:50.200Z,100385.91
2022-12-24T07:11:51.730Z,100389.41
2022-12-24T07:13:53.427Z,100393.91
2022-12-24T07:15:58.308Z,100398.22
2022-12-24T07:17:59.960Z,100402.34
2022-12-24T07:20:01.674Z,100392.63
2022-12-24T07:22:03.311Z,100382.38
2022-12-24T07:27:09.544Z,100390.91
2022-12-24T07:29:11.146Z,100387.06
2022-12-24T07:31:12.830Z,100397.81
2022-12-24T07:33:14.512Z,100401.03
2022-12-24T07:35:16.394Z,100409.94
2022-12-24T07:37:18.075Z,100404.00
2022-12-24T07:39:19.637Z,100399.63
2022-12-24T07:41:21.751Z,100396.34
2022-12-24T07:43:25.042Z,100403.00
2022-12-24T07:45:26.679Z,100402.19
2022-12-24T07:47:28.188Z,100413.16
2022-12-24T07:49:29.966Z,100422.72
2022-12-24T07:51:31.700Z,100413.50
2022-12-24T07:53:33.308Z,100418.63
2022-12-24T07:55:36.109Z,100430.53
2022-12-24T07:57:37.825Z,100424.84
2022-12-24T07:59:40.799Z,100427.75
2022-12-24T08:01:42.867Z,100422.13
2022-12-24T08:03:45.518Z,100434.06
2022-12-24T08:05:47.709Z,100434.56
2022-12-24T08:07:49.287Z,100433.88
2022-12-24T08:09:50.853Z,100436.75
2022-12-24T08:11:52.735Z,100435.16
2022-12-24T08:13:54.373Z,100436.97
2022-12-24T08:15:57.693Z,100439.28
2022-12-24T08:17:59.535Z,100444.19
2022-12-24T08:20:01.181Z,100442.22
2022-12-24T08:22:02.776Z,100438.91
2022-12-24T08:24:05.313Z,100441.84
2022-12-24T08:26:08.008Z,100448.34
2022-12-24T08:28:10.147Z,100440.84
2022-12-24T08:30:19.006Z,100444.63
2022-12-24T08:32:23.857Z,100435.50
2022-12-24T08:34:25.633Z,100438.19
2022-12-24T08:36:27.214Z,100429.78
2022-12-24T08:38:29.380Z,100435.91
2022-12-24T08:40:30.978Z,100437.63
2022-12-24T08:42:32.597Z,100436.53
2022-12-24T08:44:34.203Z,100442.94
2022-12-24T08:46:36.525Z,100440.06
2022-12-24T08:48:39.490Z,100442.84
2022-12-24T08:50:42.007Z,100446.66
2022-12-24T08:52:43.655Z,100447.56
2022-12-24T08:54:45.265Z,100447.69
2022-12-24T08:56:46.845Z,100450.41
2022-12-24T08:58:48.473Z,100451.69
2022-12-24T09:00:52.347Z,100455.72
2022-12-24T09:02:54.097Z,100453.81
2022-12-24T09:04:57.270Z,100461.13
2022-12-24T09:06:58.792Z,100464.22
2022-12-24T09:09:00.384Z,100474.47
2022-12-24T09:11:06.074Z,100477.78
2022-12-24T09:13:07.818Z,100477.19
2022-12-24T09:15:10.008Z,100474.19
2022-12-24T09:17:11.650Z,100483.13
2022-12-24T09:19:13.348Z,100485.03
2022-12-24T09:21:16.655Z,100493.34
2022-12-24T09:23:18.361Z,100497.94
2022-12-24T09:25:19.936Z,100494.06
2022-12-24T09:27:21.552Z,100500.59
2022-12-24T09:29:23.142Z,100501.56
2022-12-24T09:31:25.246Z,100508.31
2022-12-24T09:33:27.648Z,100512.84
2022-12-24T09:35:29.303Z,100511.97
2022-12-24T09:37:34.639Z,100513.28
2022-12-24T09:39:36.279Z,100520.63
2022-12-24T09:41:47.421Z,100532.31
2022-12-24T09:43:55.664Z,100536.69
2022-12-24T09:46:07.057Z,100543.53
2022-12-24T09:48:14.063Z,100537.94
2022-12-24T09:50:29.114Z,100545.16
2022-12-24T09:52:36.395Z,100551.34
2022-12-24T09:54:47.706Z,100547.13
2022-12-24T09:56:52.701Z,100541.63
2022-12-24T09:58:58.392Z,100557.47
2022-12-24T10:01:00.105Z,100554.91
2022-12-24T10:03:01.820Z,100559.53
2022-12-24T10:05:03.832Z,100552.19
2022-12-24T10:07:12.814Z,100548.88
2022-12-24T10:09:24.246Z,100553.47
2022-12-24T10:11:31.386Z,100556.81
2022-12-24T10:13:49.109Z,100561.72
2022-12-24T10:15:56.883Z,100554.31
2022-12-24T10:18:10.082Z,100562.22
2022-12-24T10:20:26.974Z,100567.22
2022-12-24T10:22:37.260Z,100571.03
2022-12-24T10:24:50.788Z,100567.22
2022-12-24T10:26:58.107Z,100572.16
2022-12-24T10:29:02.555Z,100575.88
2022-12-24T10:31:07.787Z,100569.66
2022-12-24T10:33:20.696Z,100568.25
2022-12-24T10:35:26.516Z,100571.78
2022-12-24T10:37:29.560Z,100565.66
2022-12-24T10:39:31.221Z,100572.56
2022-12-24T10:41:36.050Z,100562.84
2022-12-24T10:43:39.006Z,100562.84
2022-12-24T10:45:45.829Z,100565.03
2022-12-24T10:47:51.882Z,100559.81
2022-12-24T10:50:01.147Z,100566.38
2022-12-24T10:52:05.291Z,100569.47
2022-12-24T10:54:12.106Z,100556.44
2022-12-24T10:56:16.945Z,100567.47
2022-12-24T10:58:20.255Z,100560.53
2022-12-24T11:00:27.125Z,100559.13
2022-12-24T11:02:35.915Z,100560.03
2022-12-24T11:04:49.306Z,100557.13
2022-12-24T11:06:56.077Z,100556.22
2022-12-24T11:09:20.282Z,100556.31
2022-12-24T11:11:21.964Z,100555.22
2022-12-24T11:13:42.907Z,100552.09
2022-12-24T11:15:44.619Z,100543.16
2022-12-24T11:17:53.752Z,100546.88
2022-12-24T11:19:55.506Z,100543.47
2022-12-24T11:22:03.677Z,100545.75
2022-12-24T11:24:14.374Z,100548.47
2022-12-24T11:26:21.855Z,100548.38
2022-12-24T11:28:27.292Z,100549.38
2022-12-24T11:30:31.846Z,100547.97
2022-12-24T11:32:33.452Z,100555.19
2022-12-24T11:34:35.011Z,100547.25
2022-12-24T11:36:36.618Z,100536.72
2022-12-24T11:38:38.781Z,100543.56
2022-12-24T11:40:43.024Z,100542.72
2022-12-24T11:42:44.639Z,100546.25
2022-12-24T11:44:50.106Z,100547.59
2022-12-24T11:46:52.023Z,100549.88
2022-12-24T11:49:22.191Z,100555.63
2022-12-24T11:51:25.682Z,100558.84
2022-12-24T11:53:35.525Z,100553.50
2022-12-24T11:55:44.359Z,100542.66
2022-12-24T11:57:54.543Z,100534.34
2022-12-24T11:59:57.801Z,100544.59
2022-12-24T12:02:12.743Z,100541.25
2022-12-24T12:04:18.497Z,100545.56
2022-12-24T12:06:28.843Z,100541.75
2022-12-24T12:08:33.414Z,100542.75
2022-12-24T12:10:39.256Z,100543.56
2022-12-24T12:12:43.515Z,100544.06
2022-12-24T12:14:50.108Z,100533.03
2022-12-24T12:17:01.889Z,100538.34
2022-12-24T12:19:13.058Z,100541.47
2022-12-24T12:21:20.570Z,100542.16
2022-12-24T12:23:26.303Z,100542.34
2022-12-24T12:25:32.725Z,100556.59
2022-12-24T12:27:39.621Z,100550.69
2022-12-24T12:29:46.864Z,100550.69
2022-12-24T12:31:53.146Z,100553.19
2022-12-24T12:34:02.814Z,100546.19
2022-12-24T12:36:10.415Z,100554.00
2022-12-24T12:38:17.276Z,100551.59
2022-12-24T12:40:19.057Z,100560.44
2022-12-24T12:42:29.522Z,100556.69
2022-12-24T12:44:56.316Z,100561.31
2022-12-24T12:47:12.543Z,100563.47
2022-12-24T12:49:33.915Z,100563.97
2022-12-24T12:51:42.686Z,100556.41
2022-12-24T12:54:08.252Z,100569.38
2022-12-24T12:56:21.451Z,100560.44
2022-12-24T12:58:27.498Z,100561.53
2022-12-24T13:00:33.355Z,100560.75
2022-12-24T13:02:51.861Z,100555.81
2022-12-24T13:05:20.664Z,100556.41
2022-12-24T13:07:48.289Z,100558.28
2022-12-24T13:10:08.451Z,100550.28
2022-12-24T13:12:45.858Z,100565.06
2022-12-24T13:15:07.572Z,100570.75
2022-12-24T13:17:32.094Z,100570.69
2022-12-24T13:19:51.285Z,100565.25
2022-12-24T13:21:56.500Z,100571.28
2022-12-24T13:24:15.333Z,100571.09
2022-12-24T13:26:17.407Z,100570.25
2022-12-24T13:28:43.501Z,100568.88
2022-12-24T13:30:45.051Z,100564.34
2022-12-24T13:32:51.305Z,100570.09
2022-12-24T13:34:54.670Z,100575.38
2022-12-24T13:37:21.079Z,100580.31
2022-12-24T13:39:22.877Z,100576.50
2022-12-24T13:41:54.549Z,100578.41
2022-12-24T13:44:03.069Z,100575.00
2022-12-24T13:46:04.688Z,100580.03
2022-12-24T13:48:25.000Z,100584.84
2022-12-24T13:50:36.835Z,100580.72
2022-12-24T13:52:50.121Z,100583.81
2022-12-24T13:55:05.490Z,100578.69
2022-12-24T13:57:25.678Z,100579.59
2022-12-24T13:59:38.659Z,100588.13
2022-12-24T14:01:43.111Z,100586.72
2022-12-24T14:03:47.781Z,100589.03
2022-12-24T14:05:52.661Z,100590.72
2022-12-24T14:07:58.246Z,100587.91
2022-12-24T14:10:00.346Z,100592.75
2022-12-24T14:12:29.207Z,100596.66
2022-12-24T14:14:32.900Z,100594.16
2022-12-24T14:16:43.724Z,100593.94
2022-12-24T14:18:49.721Z,100591.66
2022-12-24T14:20:53.799Z,100589.34
2022-12-24T14:22:58.036Z,100593.16
2022-12-24T14:25:02.775Z,100597.41
2022-12-24T14:27:14.522Z,100598.19
2022-12-24T14:29:25.024Z,100595.59
2022-12-24T14:31:26.990Z,100588.03
2022-12-24T14:33:29.673Z,100592.69
2022-12-24T14:35:37.881Z,100586.44
2022-12-24T14:37:41.058Z,100584.84
2022-12-24T14:39:47.976Z,100583.63
2022-12-24T14:41:59.974Z,100578.72
2022-12-24T14:44:13.122Z,100586.25
2022-12-24T14:46:24.613Z,100585.34
2022-12-24T14:48:37.147Z,100602.00
2022-12-24T14:51:07.402Z,100610.63
2022-12-24T14:53:23.549Z,100609.03
2022-12-24T14:55:31.330Z,100614.06
2022-12-24T14:57:32.999Z,100605.72
2022-12-24T14:59:42.320Z,100602.31
2022-12-24T15:01:44.338Z,100603.72
2022-12-24T15:03:46.153Z,100602.69
2022-12-24T15:05:52.456Z,100605.94
2022-12-24T15:07:58.016Z,100605.09
2022-12-24T15:09:59.839Z,100607.31
2022-12-24T15:12:03.826Z,100618.56
2022-12-24T15:14:05.685Z,100619.34
2022-12-24T15:16:09.645Z,100622.66
2022-12-24T15:18:16.330Z,100615.94
2022-12-24T15:20:20.583Z,100625.38
2022-12-24T15:22:24.851Z,100628.91
2022-12-24T15:24:28.307Z,100632.41
2022-12-24T15:26:31.659Z,100642.13
2022-12-24T15:28:38.650Z,100634.00
2022-12-24T15:30:40.335Z,100629.41
2022-12-24T15:32:42.342Z,100646.06
2022-12-24T15:34:46.490Z,100642.25
2022-12-24T15:36:48.101Z,100654.38
2022-12-24T15:38:52.943Z,100652.47
2022-12-24T15:40:55.426Z,100648.44
2022-12-24T15:42:57.138Z,100649.25
2022-12-24T15:45:03.538Z,100650.84
2022-12-24T15:47:08.569Z,100656.59
2022-12-24T15:49:17.348Z,100656.59
2022-12-24T15:51:25.698Z,100655.78
2022-12-24T15:53:30.204Z,100664.72
2022-12-24T15:55:35.972Z,100658.97
2022-12-24T15:57:37.659Z,100660.00
2022-12-24T15:59:39.355Z,100660.81
2022-12-24T16:01:43.966Z,100657.88
2022-12-24T16:03:56.390Z,100663.03
2022-12-24T16:06:02.073Z,100666.00
2022-12-24T16:08:25.119Z,100657.88
2022-12-24T16:10:26.932Z,100664.78
2022-12-24T16:12:30.065Z,100660.25
2022-12-24T16:14:32.741Z,100668.50
2022-12-24T16:16:37.578Z,100669.59
2022-12-24T16:18:52.529Z,100669.00
2022-12-24T16:20:56.116Z,100666.56
2022-12-24T16:22:58.149Z,100663.66
2022-12-24T16:25:00.750Z,100667.66
2022-12-24T16:27:02.397Z,100672.50
2022-12-24T16:29:04.355Z,100674.13
2022-12-24T16:31:06.155Z,100673.81
2022-12-24T16:33:14.188Z,100668.38
2022-12-24T16:35:25.646Z,100664.69
2022-12-24T16:37:27.247Z,100669.13
2022-12-24T16:39:31.859Z,100652.88
2022-12-24T16:41:33.469Z,100650.94
2022-12-24T16:43:35.075Z,100647.31
2022-12-24T16:45:36.926Z,100646.59
2022-12-24T16:47:42.711Z,100649.81
2022-12-24T16:49:45.335Z,100655.84
2022-12-24T16:51:48.296Z,100665.56
2022-12-24T16:53:49.921Z,100664.84
2022-12-24T16:55:51.890Z,100672.66
2022-12-24T16:57:53.511Z,100669.13
2022-12-24T16:59:55.094Z,100672.47
2022-12-24T17:01:56.751Z,100671.06
2022-12-24T17:03:58.444Z,100682.63
2022-12-24T17:06:04.589Z,100676.63
2022-12-24T17:08:08.291Z,100676.03
2022-12-24T17:10:11.700Z,100678.13
2022-12-24T17:12:14.405Z,100684.66
2022-12-24T17:14:20.331Z,100685.84
2022-12-24T17:16:37.445Z,100684.22
2022-12-24T17:18:39.190Z,100684.53
2022-12-24T17:20:40.843Z,100683.81
2022-12-24T17:22:42.485Z,100686.22
2022-12-24T17:24:45.668Z,100682.09
2022-12-24T17:26:47.227Z,100684.03
2022-12-24T17:28:52.499Z,100686.16
2022-12-24T17:30:54.133Z,100691.06
2022-12-24T17:32:55.760Z,100698.94
2022-12-24T17:34:57.330Z,100696.91
2022-12-24T17:36:58.914Z,100701.22
2022-12-24T17:39:00.590Z,100700.13
2022-12-24T17:41:05.030Z,100714.47
2022-12-24T17:43:06.644Z,100697.72
2022-12-24T17:45:09.068Z,100701.22
2022-12-24T17:47:10.598Z,100705.84
2022-12-24T17:49:12.521Z,100712.88
2022-12-24T17:51:15.917Z,100710.66
2022-12-24T17:53:20.328Z,100706.66
2022-12-24T17:55:21.981Z,100706.13
2022-12-24T17:57:24.920Z,100708.84
2022-12-24T17:59:26.524Z,100708.03
2022-12-24T18:01:28.289Z,100701.00
2022-12-24T18:03:30.227Z,100691.84
2022-12-24T18:05:34.073Z,100685.66
2022-12-24T18:07:35.805Z,100685.91
2022-12-24T18:09:37.620Z,100680.50
2022-12-24T18:11:39.852Z,100688.22
2022-12-24T18:13:42.952Z,100691.75
2022-12-24T18:15:44.620Z,100688.03
2022-12-24T18:17:50.574Z,100694.25
2022-12-24T18:19:52.185Z,100698.28
2022-12-24T18:21:53.814Z,100697.75
2022-12-24T18:23:55.555Z,100703.41
2022-12-24T18:26:01.674Z,100689.06
2022-12-24T18:28:03.500Z,100690.16
2022-12-24T18:30:08.628Z,100706.41
2022-12-24T18:32:10.223Z,100702.91
2022-12-24T18:34:13.472Z,100702.09
2022-12-24T18:36:15.440Z,100695.88
2022-12-24T18:38:16.993Z,100694.25
2022-12-24T18:40:18.620Z,100691.25
2022-12-24T18:42:20.311Z,100693.69
2022-12-24T18:44:25.268Z,100690.47
2022-12-24T18:46:31.606Z,100695.06
2022-12-24T18:48:33.251Z,100701.56
2022-12-24T18:50:34.898Z,100696.16
2022-12-24T18:52:39.646Z,100699.47
2022-12-24T18:54:41.485Z,100693.81
2022-12-24T18:56:43.097Z,100693.59
2022-12-24T18:58:44.771Z,100687.66
2022-12-24T19:00:46.796Z,100685.53
2022-12-24T19:02:49.857Z,100678.53
2022-12-24T19:04:51.580Z,100685.34
2022-12-24T19:06:53.715Z,100706.69
2022-12-24T19:08:57.630Z,100717.22
2022-12-24T19:11:01.125Z,100718.78
2022-12-24T19:13:02.740Z,100722.78
2022-12-24T19:15:05.217Z,100717.06
2022-12-24T19:17:06.853Z,100715.97
2022-12-24T19:19:11.496Z,100718.09
2022-12-24T19:21:14.273Z,100718.09
2022-12-24T19:23:18.736Z,100711.91
2022-12-24T19:25:21.465Z,100723.22
2022-12-24T19:27:23.035Z,100722.94
2022-12-24T19:29:24.665Z,100737.84
2022-12-24T19:31:26.425Z,100741.16
2022-12-24T19:33:28.007Z,100750.66
2022-12-24T19:35:31.261Z,100743.34
2022-12-24T19:37:32.861Z,100743.88
2022-12-24T19:39:34.435Z,100744.97
2022-12-24T19:41:36.189Z,100748.25
2022-12-24T19:43:38.072Z,100749.88
2022-12-24T19:45:39.717Z,100745.03
2022-12-24T19:47:41.621Z,100744.22
2022-12-24T19:49:43.178Z,100741.53
2022-12-24T19:51:46.190Z,100738.81
2022-12-24T19:53:48.696Z,100734.50
2022-12-24T19:55:50.264Z,100748.25
2022-12-24T19:57:51.967Z,100744.66
2022-12-24T19:59:53.519Z,100745.75
2022-12-24T20:01:55.375Z,100748.19
2022-12-24T20:03:57.654Z,100745.19
2022-12-24T20:05:59.274Z,100740.28
2022-12-24T20:08:02.231Z,100750.31
2022-12-24T20:10:04.227Z,100756.22
2022-12-24T20:12:06.619Z,100750.53
2022-12-24T20:14:08.421Z,100759.47
2022-12-24T20:16:12.107Z,100764.34
2022-12-24T20:18:14.569Z,100763.50
2022-12-24T20:20:16.288Z,100774.88
2022-12-24T20:22:17.885Z,100779.94
2022-12-24T20:24:20.842Z,100771.50
2022-12-24T20:26:27.758Z,100773.41
2022-12-24T20:28:31.232Z,100777.34
2022-12-24T20:30:36.002Z,100781.69
2022-12-24T20:32:37.469Z,100778.41
2022-12-24T20:34:38.960Z,100778.41
2022-12-24T20:36:40.681Z,100766.78
2022-12-24T20:38:42.701Z,100760.56
2022-12-24T20:40:46.733Z,100760.63
2022-12-24T20:42:48.402Z,100756.31
2022-12-24T20:44:52.798Z,100763.25
2022-12-24T20:46:54.411Z,100761.09
2022-12-24T20:48:56.143Z,100755.38
2022-12-24T20:50:58.005Z,100765.44
2022-12-24T20:52:59.670Z,100766.78
2022-12-24T20:55:01.250Z,100764.09
2022-12-24T20:57:04.147Z,100764.66
2022-12-24T20:59:05.661Z,100760.34
2022-12-24T21:01:11.655Z,100759.03
2022-12-24T21:03:13.395Z,100760.34
2022-12-24T21:05:15.077Z,100758.28
2022-12-24T21:07:16.732Z,100759.72
2022-12-24T21:09:18.371Z,100756.81
2022-12-24T21:11:20.587Z,100758.13
2022-12-24T21:13:23.707Z,100762.25
2022-12-24T21:15:27.434Z,100763.59
2022-12-24T21:17:29.268Z,100767.97
2022-12-24T21:19:31.003Z,100770.09
2022-12-24T21:21:33.349Z,100765.28
2022-12-24T21:23:34.972Z,100768.53
2022-12-24T21:25:36.795Z,100764.75
2022-12-24T21:27:38.964Z,100754.50
2022-12-24T21:29:41.889Z,100761.00
2022-12-24T21:31:43.584Z,100755.88
2022-12-24T21:33:45.444Z,100756.09
2022-12-24T21:35:47.039Z,100757.19
2022-12-24T21:37:48.778Z,100762.09
2022-12-24T21:39:50.368Z,100753.75
2022-12-24T21:41:51.948Z,100753.47
2022-12-24T21:43:53.601Z,100751.03
2022-12-24T21:45:57.138Z,100755.13
2022-12-24T21:47:58.812Z,100747.31
2022-12-24T21:50:00.449Z,100755.72
2022-12-24T21:52:02.074Z,100763.81
2022-12-24T21:54:03.893Z,100754.97
2022-12-24T21:56:08.817Z,100743.34
2022-12-24T21:58:10.490Z,100749.03
2022-12-24T22:00:12.874Z,100745.00
2022-12-24T22:02:16.450Z,100745.03
2022-12-24T22:04:18.409Z,100734.53
2022-12-24T22:06:20.003Z,100735.34
2022-12-24T22:08:21.637Z,100727.84
2022-12-24T22:10:23.306Z,100723.03
2022-12-24T22:12:25.662Z,100731.41
2022-12-24T22:14:27.570Z,100725.44
2022-12-24T22:16:29.512Z,100716.00
2022-12-24T22:18:32.440Z,100718.41
2022-12-24T22:20:34.368Z,100734.94
2022-12-24T22:22:35.912Z,100722.50
2022-12-24T22:24:37.489Z,100727.16
2022-12-24T22:26:39.108Z,100720.53
2022-12-24T22:28:40.667Z,100716.50
2022-12-24T22:30:43.304Z,100726.53
2022-12-24T22:32:44.942Z,100727.63
2022-12-24T22:34:47.926Z,100735.44
2022-12-24T22:36:49.554Z,100740.34
2022-12-24T22:38:51.147Z,100733.31
2022-12-24T22:40:52.784Z,100744.06
2022-12-24T22:42:54.646Z,100741.09
2022-12-24T22:44:56.467Z,100744.38
2022-12-24T22:46:58.083Z,100745.47
2022-12-24T22:48:59.646Z,100744.38
2022-12-24T22:51:05.567Z,100734.06
2022-12-24T22:53:07.195Z,100743.50
2022-12-24T22:55:09.264Z,100740.84
2022-12-24T22:57:11.268Z,100747.06
2022-12-24T22:59:14.219Z,100750.41
2022-12-24T23:01:15.805Z,100749.25
2022-12-24T23:03:17.746Z,100744.13
2022-12-24T23:05:19.680Z,100742.44
2022-12-24T23:07:22.745Z,100741.13
2022-12-24T23:09:24.299Z,100736.25
2022-12-24T23:11:25.966Z,100731.63
2022-12-24T23:13:27.573Z,100733.78
2022-12-24T23:15:29.210Z,100744.88
2022-12-24T23:17:30.803Z,100742.13
2022-12-24T23:19:32.420Z,100733.22
2022-12-24T23:21:35.593Z,100732.91
2022-12-24T23:23:38.598Z,100732.69
2022-12-24T23:25:40.481Z,100729.44
2022-12-24T23:27:42.121Z,100728.38
2022-12-24T23:29:43.687Z,100725.34
2022-12-24T23:31:45.355Z,100733.25
2022-12-24T23:33:47.747Z,100723.78
2022-12-24T23:35:49.453Z,100721.88
2022-12-24T23:37:51.007Z,100718.06
2022-12-24T23:39:53.997Z,100716.44
2022-12-24T23:41:55.577Z,100714.84
2022-12-24T23:43:57.095Z,100725.66